Time;durP1;ratioP1;P1;durP2;ratioP2;P2;SDS_P1;SDS_P2;PMS_P1;PMS_P2;Temp;Humidity;BMP_temperature;BMP_pressure;BME280_temperature;BME280_humidity;BME280_pressure;Samples;Min_cycle;Max_cycle;Signal;HPM_P1;HPM_P2
2022/03/01 00:02:07;;;;;;;22.80;8.38;;;;;;;-3.38;65.58;96702.81;4989641;28;20117;-71
2022/03/01 00:04:32;;;;;;;25.38;9.10;;;;;;;-3.36;65.71;96703.50;4987061;28;20042;-72
2022/03/01 00:06:58;;;;;;;24.13;8.52;;;;;;;-3.48;66.95;96696.97;4989454;28;20500;-72
2022/03/01 00:09:23;;;;;;;24.10;8.68;;;;;;;-3.68;67.52;96698.94;4989500;28;20042;-72
2022/03/01 00:11:49;;;;;;;24.23;8.68;;;;;;;-3.76;67.50;96697.13;4986706;28;20121;-72
2022/03/01 00:14:14;;;;;;;28.95;9.18;;;;;;;-3.79;66.77;96692.28;4988138;28;20595;-72
2022/03/01 00:16:40;;;;;;;24.88;8.80;;;;;;;-3.69;67.61;96695.56;4989919;28;20046;-71
2022/03/01 00:19:05;;;;;;;23.50;8.73;;;;;;;-3.79;67.51;96697.44;4972813;28;20047;-72
2022/03/01 00:21:31;;;;;;;28.33;7.95;;;;;;;-3.85;67.97;96685.13;4981725;28;20496;-72
2022/03/01 00:23:57;;;;;;;24.63;8.25;;;;;;;-3.95;67.77;96692.13;4988423;28;20496;-72
2022/03/01 00:26:23;;;;;;;28.85;8.73;;;;;;;-4.01;68.80;96689.22;4984142;28;20515;-73
2022/03/01 00:28:49;;;;;;;27.75;9.15;;;;;;;-3.92;68.66;96691.84;4990211;28;20070;-73
2022/03/01 00:31:15;;;;;;;30.83;9.68;;;;;;;-4.13;68.54;96684.47;4990359;28;20060;-73
2022/03/01 00:33:41;;;;;;;24.05;9.25;;;;;;;-4.10;69.58;96679.00;4986835;28;20117;-72
2022/03/01 00:36:07;;;;;;;29.15;9.63;;;;;;;-4.03;68.12;96685.97;4982309;28;20424;-72
2022/03/01 00:38:32;;;;;;;25.50;9.18;;;;;;;-3.95;68.68;96681.84;4988669;28;20078;-73
2022/03/01 00:40:58;;;;;;;25.92;8.50;;;;;;;-3.99;68.27;96689.06;4989411;28;20078;-73
2022/03/01 00:43:24;;;;;;;22.90;9.30;;;;;;;-4.10;68.89;96679.81;4985578;28;20120;-73
2022/03/01 00:45:51;;;;;;;26.63;8.93;;;;;;;-4.28;69.23;96681.59;4989216;28;20467;-74
2022/03/01 00:48:16;;;;;;;24.50;8.85;;;;;;;-4.16;68.05;96684.75;4983637;28;20117;-74
2022/03/01 00:50:42;;;;;;;28.45;9.10;;;;;;;-4.22;70.16;96681.00;4990266;28;20492;-74
2022/03/01 00:53:08;;;;;;;28.02;9.18;;;;;;;-4.45;69.71;96681.44;4976491;28;20109;-74
2022/03/01 00:55:34;;;;;;;22.52;9.23;;;;;;;-4.65;71.36;96677.41;4987223;28;20508;-74
2022/03/01 00:58:00;;;;;;;34.38;9.75;;;;;;;-4.81;72.99;96676.25;4989658;28;20042;-74
2022/03/01 01:00:26;;;;;;;28.33;8.65;;;;;;;-4.46;71.31;96674.69;4990200;28;20042;-74
2022/03/01 01:02:52;;;;;;;27.60;9.25;;;;;;;-4.55;70.95;96665.28;4986657;28;20193;-74
2022/03/01 01:05:18;;;;;;;28.52;8.90;;;;;;;-4.74;72.05;96664.47;4978599;28;20038;-73
2022/03/01 01:07:44;;;;;;;22.42;8.70;;;;;;;-4.54;71.52;96656.59;4971391;28;20460;-73
2022/03/01 01:10:11;;;;;;;27.95;8.18;;;;;;;-4.49;71.08;96659.56;4988668;28;20086;-74
2022/03/01 01:12:36;;;;;;;25.85;9.38;;;;;;;-4.38;71.06;96656.78;4987389;28;20055;-72
2022/03/01 01:15:04;;;;;;;26.50;9.43;;;;;;;-4.48;71.46;96660.34;4980005;28;20054;-74
2022/03/01 01:17:29;;;;;;;28.30;9.23;;;;;;;-4.61;70.67;96660.72;4988358;28;20491;-74
2022/03/01 01:19:55;;;;;;;23.25;8.45;;;;;;;-4.78;71.71;96655.41;4989504;28;20056;-73
2022/03/01 01:25:07;;;;;;;27.13;9.05;;;;;;;-4.82;72.49;96654.09;4980997;28;20097;-73
2022/03/01 01:27:33;;;;;;;26.42;8.05;;;;;;;-4.75;72.19;96659.47;4989612;28;20122;-73
2022/03/01 01:29:58;;;;;;;28.90;9.95;;;;;;;-4.79;71.58;96658.94;4989276;28;20117;-73
2022/03/01 01:32:24;;;;;;;28.95;9.35;;;;;;;-5.08;72.85;96657.34;4989433;28;20539;-73
2022/03/01 01:34:50;;;;;;;27.17;8.60;;;;;;;-5.26;74.27;96648.78;4987967;28;20496;-73
2022/03/01 01:37:15;;;;;;;32.88;9.25;;;;;;;-5.11;73.12;96649.94;4985448;28;20141;-73
2022/03/01 01:39:41;;;;;;;22.20;8.60;;;;;;;-4.99;72.49;96639.47;4991824;28;20081;-73
2022/03/01 01:42:06;;;;;;;27.30;8.70;;;;;;;-4.97;72.50;96630.69;4992250;28;20588;-73
2022/03/01 01:44:32;;;;;;;27.05;9.90;;;;;;;-4.96;72.56;96631.47;4985534;28;20550;-74
2022/03/01 01:46:58;;;;;;;26.45;8.75;;;;;;;-5.08;72.14;96629.09;4992959;28;20042;-74
2022/03/01 01:49:24;;;;;;;24.73;9.13;;;;;;;-4.96;73.04;96623.78;4992656;28;20042;-73
2022/03/01 01:51:49;;;;;;;25.42;8.63;;;;;;;-4.85;71.53;96638.19;4976732;28;20121;-73
2022/03/01 01:54:15;;;;;;;25.42;9.45;;;;;;;-4.91;71.16;96634.44;4977298;28;20057;-73
2022/03/01 01:56:41;;;;;;;27.17;9.32;;;;;;;-4.85;70.58;96628.72;4977630;28;20058;-73
2022/03/01 01:59:06;;;;;;;26.27;9.02;;;;;;;-4.82;71.68;96633.53;4978676;28;20057;-73
2022/03/01 02:01:32;;;;;;;30.42;9.70;;;;;;;-5.09;72.30;96622.34;4990068;28;20486;-73
2022/03/01 02:04:01;;;;;;;24.42;8.88;;;;;;;-4.92;72.63;96625.91;4982871;28;20578;-72
2022/03/01 02:06:27;;;;;;;29.45;9.68;;;;;;;-5.05;72.42;96621.09;4985899;28;20039;-72
2022/03/01 02:08:53;;;;;;;26.08;9.68;;;;;;;-4.99;72.67;96624.06;4990842;28;20050;-72
2022/03/01 02:11:19;;;;;;;33.13;9.25;;;;;;;-5.15;73.04;96617.00;4976689;28;20100;-73
2022/03/01 02:13:44;;;;;;;26.17;9.05;;;;;;;-5.15;72.99;96615.22;4975369;28;20046;-73
2022/03/01 02:16:10;;;;;;;28.13;9.60;;;;;;;-5.26;73.29;96616.25;4992501;28;20555;-72
2022/03/01 02:18:37;;;;;;;26.67;9.48;;;;;;;-5.30;73.44;96608.94;4989980;28;20045;-72
2022/03/01 02:21:03;;;;;;;30.75;9.75;;;;;;;-5.33;73.42;96604.09;4986065;28;20074;-73
2022/03/01 02:23:29;;;;;;;33.50;9.02;;;;;;;-5.40;74.13;96607.25;4992270;28;20043;-73
2022/03/01 02:25:54;;;;;;;25.17;9.52;;;;;;;-5.43;74.47;96599.84;4984391;28;20042;-72
2022/03/01 02:28:20;;;;;;;32.85;10.95;;;;;;;-5.38;74.71;96596.03;4992060;28;20038;-73
2022/03/01 02:30:45;;;;;;;28.92;9.85;;;;;;;-5.26;73.61;96589.75;4992547;28;20043;-72
2022/03/01 02:33:11;;;;;;;32.40;10.50;;;;;;;-5.07;72.49;96593.97;4991973;28;20100;-72
2022/03/01 02:35:36;;;;;;;27.77;10.27;;;;;;;-4.99;72.84;96601.75;4989242;28;20221;-72
2022/03/01 02:38:03;;;;;;;30.30;10.98;;;;;;;-4.98;72.07;96600.00;4992358;28;20042;-73
2022/03/01 02:40:29;;;;;;;31.25;10.18;;;;;;;-5.05;71.40;96595.44;4991726;28;20034;-73
2022/03/01 02:42:54;;;;;;;31.00;9.75;;;;;;;-5.23;72.58;96595.41;4981203;28;20053;-73
2022/03/01 02:45:20;;;;;;;28.65;9.30;;;;;;;-5.34;72.21;96602.47;4991470;28;20038;-73
2022/03/01 02:47:46;;;;;;;30.45;10.32;;;;;;;-5.36;72.89;96594.13;4992664;28;20077;-73
2022/03/01 02:50:12;;;;;;;25.63;9.25;;;;;;;-5.26;73.37;96595.72;4990399;28;20051;-73
2022/03/01 02:52:38;;;;;;;25.58;9.15;;;;;;;-5.26;73.72;96594.88;4988382;28;20038;-73
2022/03/01 02:55:05;;;;;;;27.40;9.13;;;;;;;-5.32;73.80;96598.03;4982493;28;20074;-73
2022/03/01 02:57:31;;;;;;;29.90;9.38;;;;;;;-5.42;74.32;96609.13;4986017;28;20043;-73
2022/03/01 02:59:57;;;;;;;28.38;9.65;;;;;;;-5.50;73.74;96603.91;4983981;28;20720;-73
2022/03/01 03:02:23;;;;;;;28.83;9.63;;;;;;;-5.63;73.81;96605.97;4987725;28;20038;-73
2022/03/01 03:04:49;;;;;;;26.80;9.88;;;;;;;-5.69;74.53;96601.41;4990558;28;20507;-73
2022/03/01 03:07:15;;;;;;;24.95;9.60;;;;;;;-5.53;75.44;96603.38;4992039;28;20054;-73
2022/03/01 03:09:41;;;;;;;32.55;9.60;;;;;;;-5.57;75.58;96597.75;4988937;28;20050;-73
2022/03/01 03:12:08;;;;;;;30.38;9.48;;;;;;;-5.72;74.87;96594.81;4978731;28;20573;-73
2022/03/01 03:14:35;;;;;;;30.33;11.00;;;;;;;-5.82;75.28;96594.88;4982653;28;20048;-73
2022/03/01 03:17:00;;;;;;;31.75;10.48;;;;;;;-5.81;76.09;96591.31;4975939;28;20377;-73
2022/03/01 03:19:26;;;;;;;30.33;9.80;;;;;;;-5.92;76.33;96584.63;4990093;28;20042;-73
2022/03/01 03:21:52;;;;;;;31.27;10.38;;;;;;;-5.87;75.94;96581.63;4980806;28;20065;-73
2022/03/01 03:24:18;;;;;;;29.73;9.45;;;;;;;-5.98;75.32;96580.06;4977615;28;20105;-73
2022/03/01 03:26:43;;;;;;;29.10;10.65;;;;;;;-6.07;75.75;96585.25;4980315;28;20054;-73
2022/03/01 03:29:09;;;;;;;28.08;10.57;;;;;;;-6.22;77.13;96585.69;4980339;28;20491;-73
2022/03/01 03:31:40;;;;;;;27.45;9.50;;;;;;;-6.24;77.39;96590.13;4990975;28;20569;-73
2022/03/01 03:34:10;;;;;;;25.48;9.60;;;;;;;-6.21;77.06;96578.78;4988042;28;20054;-73
2022/03/01 03:36:38;;;;;;;29.75;9.50;;;;;;;-6.20;76.93;96575.28;4991651;28;20047;-73
2022/03/01 03:39:05;;;;;;;34.83;10.25;;;;;;;-6.24;77.19;96569.63;4989429;28;20098;-73
2022/03/01 03:41:31;;;;;;;32.53;10.40;;;;;;;-6.32;78.52;96567.75;4986982;28;20043;-73
2022/03/01 03:43:59;;;;;;;30.55;9.73;;;;;;;-6.29;78.34;96566.69;4973291;28;20042;-73
2022/03/01 03:46:24;;;;;;;34.58;10.60;;;;;;;-6.43;78.66;96565.34;4989301;28;20034;-73
2022/03/01 03:48:52;;;;;;;33.75;10.43;;;;;;;-6.35;77.72;96567.22;4990355;28;20061;-73
2022/03/01 03:51:19;;;;;;;30.08;9.75;;;;;;;-6.33;78.08;96565.34;4987212;28;20050;-71
2022/03/01 03:53:45;;;;;;;38.88;10.82;;;;;;;-6.45;79.14;96565.47;4987227;28;20258;-72
2022/03/01 03:56:11;;;;;;;34.17;10.63;;;;;;;-6.55;78.71;96554.44;4972712;28;20461;-73
2022/03/01 03:58:37;;;;;;;28.85;10.43;;;;;;;-6.61;79.28;96549.84;4980453;28;20050;-73
2022/03/01 04:01:04;;;;;;;40.72;9.77;;;;;;;-6.58;79.27;96557.25;4988387;28;20053;-72
2022/03/01 04:03:30;;;;;;;28.20;9.57;;;;;;;-6.58;79.46;96557.25;4971248;28;20050;-72
2022/03/01 04:05:56;;;;;;;32.40;10.70;;;;;;;-6.68;79.72;96546.22;4986106;28;20046;-72
2022/03/01 04:08:22;;;;;;;25.45;9.27;;;;;;;-6.70;79.69;96548.09;4990943;28;20511;-72
2022/03/01 04:10:47;;;;;;;26.00;9.63;;;;;;;-6.69;80.22;96549.75;4989596;28;20421;-72
2022/03/01 04:13:13;;;;;;;27.17;9.82;;;;;;;-6.81;79.62;96552.44;4987860;28;20427;-72
2022/03/01 04:15:38;;;;;;;34.38;10.43;;;;;;;-6.89;79.77;96554.03;4988934;28;20050;-72
2022/03/01 04:18:04;;;;;;;23.00;8.52;;;;;;;-6.72;79.71;96555.09;4990581;28;20046;-73
2022/03/01 04:20:31;;;;;;;32.83;9.23;;;;;;;-6.72;80.80;96555.09;4990027;28;20050;-73
2022/03/01 04:22:56;;;;;;;31.42;9.82;;;;;;;-6.73;79.60;96558.63;4974588;28;20047;-73
2022/03/01 04:25:22;;;;;;;24.55;9.15;;;;;;;-6.71;79.55;96554.16;4980960;28;20121;-73
2022/03/01 04:27:48;;;;;;;29.10;8.90;;;;;;;-6.69;79.37;96559.97;4990337;28;20038;-73
2022/03/01 04:30:15;;;;;;;26.90;9.75;;;;;;;-6.70;79.57;96558.34;4987561;28;20039;-73
2022/03/01 04:32:41;;;;;;;24.65;9.93;;;;;;;-6.91;80.61;96551.63;4989248;28;20517;-72
2022/03/01 04:35:08;;;;;;;28.60;9.82;;;;;;;-6.94;79.57;96551.88;4988708;28;20046;-72
2022/03/01 04:37:39;;;;;;;29.15;9.20;;;;;;;-6.92;80.37;96555.13;4989781;28;20043;-72
2022/03/01 04:40:07;;;;;;;31.23;9.95;;;;;;;-6.96;80.55;96558.88;4990205;28;20492;-72
2022/03/01 04:42:33;;;;;;;34.22;9.27;;;;;;;-7.02;79.83;96556.88;4983076;28;20054;-72
2022/03/01 04:44:59;;;;;;;29.88;10.20;;;;;;;-7.04;80.90;96557.00;4989254;28;20046;-72
2022/03/01 04:47:25;;;;;;;34.75;9.52;;;;;;;-7.00;80.58;96557.53;4989083;28;20121;-72
2022/03/01 04:49:51;;;;;;;28.42;9.43;;;;;;;-6.96;80.38;96556.31;4989934;28;20109;-72
2022/03/01 04:52:17;;;;;;;27.63;9.93;;;;;;;-7.05;80.70;96559.66;4983728;28;20489;-72
2022/03/01 04:54:42;;;;;;;34.92;9.93;;;;;;;-7.03;80.66;96547.56;4978527;28;20038;-72
2022/03/01 04:57:08;;;;;;;31.13;8.98;;;;;;;-7.15;80.72;96555.34;4980759;28;20392;-72
2022/03/01 04:59:33;;;;;;;35.28;10.32;;;;;;;-7.22;80.85;96554.28;4989690;28;20038;-72
2022/03/01 05:01:59;;;;;;;36.42;11.02;;;;;;;-7.26;81.37;96558.03;4988940;28;20496;-72
2022/03/01 05:04:25;;;;;;;25.92;9.48;;;;;;;-7.29;82.64;96558.28;4989201;28;20148;-72
2022/03/01 05:06:51;;;;;;;28.55;9.93;;;;;;;-7.25;82.47;96559.66;4989379;28;20030;-72
2022/03/01 05:09:17;;;;;;;35.20;9.95;;;;;;;-7.22;82.00;96559.38;4989666;28;20046;-72
2022/03/01 05:11:44;;;;;;;36.78;10.77;;;;;;;-7.30;82.31;96559.22;4989255;28;20526;-72
2022/03/01 05:14:09;;;;;;;31.38;9.85;;;;;;;-7.29;81.75;96563.41;4983699;28;20053;-72
2022/03/01 05:16:35;;;;;;;30.00;10.50;;;;;;;-7.33;82.11;96567.16;4987962;28;20058;-72
2022/03/01 05:19:01;;;;;;;26.10;9.27;;;;;;;-7.33;81.92;96567.16;4988876;28;20072;-73
2022/03/01 05:21:29;;;;;;;36.70;10.20;;;;;;;-7.23;82.14;96568.00;4988310;28;20065;-73
2022/03/01 05:23:54;;;;;;;33.03;10.25;;;;;;;-7.28;81.99;96570.16;4984214;28;20442;-73
2022/03/01 05:26:20;;;;;;;31.80;10.07;;;;;;;-7.31;82.41;96565.31;4979734;28;20057;-74
2022/03/01 05:28:45;;;;;;;28.48;9.50;;;;;;;-7.32;82.78;96568.78;4984242;28;20046;-73
2022/03/01 05:31:11;;;;;;;31.92;9.90;;;;;;;-7.40;82.09;96568.63;4980924;28;20562;-73
2022/03/01 05:33:36;;;;;;;33.97;10.65;;;;;;;-7.41;83.40;96564.44;4988365;28;20053;-73
2022/03/01 05:36:02;;;;;;;35.08;10.25;;;;;;;-7.44;82.73;96569.84;4988976;28;20046;-72
2022/03/01 05:38:28;;;;;;;35.08;11.07;;;;;;;-7.42;82.83;96567.97;4984592;28;20034;-72
2022/03/01 05:40:54;;;;;;;28.52;9.40;;;;;;;-7.43;83.04;96581.69;4989671;28;20049;-72
2022/03/01 05:43:20;;;;;;;28.15;9.73;;;;;;;-7.35;83.28;96579.28;4988230;28;20035;-72
2022/03/01 05:45:45;;;;;;;30.42;9.70;;;;;;;-7.19;82.57;96579.59;4987263;28;20100;-72
2022/03/01 05:48:11;;;;;;;29.60;10.23;;;;;;;-7.17;83.08;96587.94;4976896;28;20121;-72
2022/03/01 05:50:36;;;;;;;22.60;9.23;;;;;;;-7.17;82.52;96587.13;4989713;28;20060;-72
2022/03/01 05:53:02;;;;;;;32.55;10.00;;;;;;;-7.19;82.44;96594.94;4988551;28;20042;-72
2022/03/01 05:55:28;;;;;;;27.08;9.20;;;;;;;-7.16;82.46;96594.66;4982342;28;20542;-72
2022/03/01 05:57:54;;;;;;;28.17;8.98;;;;;;;-7.15;82.15;96601.41;4989309;28;20038;-72
2022/03/01 06:00:21;;;;;;;27.25;9.85;;;;;;;-7.29;81.60;96604.34;4988816;28;20034;-72
2022/03/01 06:02:49;;;;;;;24.55;9.45;;;;;;;-7.28;82.71;96605.97;4982485;28;20042;-72
2022/03/01 06:05:15;;;;;;;24.80;8.65;;;;;;;-7.28;82.32;96605.97;4988859;28;20057;-73
2022/03/01 06:07:41;;;;;;;31.20;9.23;;;;;;;-7.21;82.24;96607.06;4989081;28;20056;-72
2022/03/01 06:10:07;;;;;;;26.92;9.25;;;;;;;-7.20;82.98;96608.66;4989218;28;20043;-72
2022/03/01 06:12:33;;;;;;;33.30;9.93;;;;;;;-7.25;82.69;96610.81;4979347;28;20058;-72
2022/03/01 06:14:59;;;;;;;25.13;9.20;;;;;;;-7.23;82.65;96614.03;4987908;28;20043;-72
2022/03/01 06:17:24;;;;;;;27.58;9.38;;;;;;;-7.22;82.43;96609.75;4978464;28;20130;-72
2022/03/01 06:19:50;;;;;;;28.00;9.38;;;;;;;-7.21;82.45;96614.72;4983741;28;20039;-72
2022/03/01 06:22:16;;;;;;;29.00;9.05;;;;;;;-7.15;82.17;96609.09;4981378;28;20135;-72
2022/03/01 06:24:42;;;;;;;25.25;8.90;;;;;;;-7.03;81.56;96614.09;4986262;28;20053;-72
2022/03/01 06:27:08;;;;;;;31.67;8.75;;;;;;;-6.96;81.29;96615.19;4991562;28;20117;-72
2022/03/01 06:29:35;;;;;;;22.30;8.73;;;;;;;-6.93;81.57;96620.03;4991120;28;20133;-72
2022/03/01 06:32:01;;;;;;;33.95;8.90;;;;;;;-6.89;81.15;96626.50;4991261;28;20066;-72
2022/03/01 06:34:27;;;;;;;23.58;7.78;;;;;;;-6.87;81.55;96619.50;4989540;28;20042;-72
2022/03/01 06:36:52;;;;;;;24.55;8.82;;;;;;;-6.81;80.55;96624.09;4992491;28;20073;-72
2022/03/01 06:39:18;;;;;;;23.13;8.73;;;;;;;-6.71;81.32;96618.16;4990622;28;20042;-72
2022/03/01 06:41:44;;;;;;;28.75;8.75;;;;;;;-6.57;80.51;96615.22;4987766;28;20546;-72
2022/03/01 06:44:09;;;;;;;21.45;7.75;;;;;;;-6.41;79.85;96619.00;4991735;28;20061;-71
2022/03/01 06:46:35;;;;;;;25.88;9.38;;;;;;;-6.19;78.71;96623.00;4992577;28;20064;-72
2022/03/01 06:49:01;;;;;;;23.75;8.20;;;;;;;-5.96;77.29;96626.03;4991341;28;20043;-72
2022/03/01 06:51:27;;;;;;;26.98;8.93;;;;;;;-5.90;76.46;96617.81;4991888;28;20049;-72
2022/03/01 06:53:52;;;;;;;30.38;9.20;;;;;;;-5.84;76.98;96622.38;4975863;28;20034;-72
2022/03/01 06:56:18;;;;;;;26.77;9.75;;;;;;;-5.78;75.92;96616.69;4989855;28;20045;-72
2022/03/01 06:58:44;;;;;;;26.08;8.75;;;;;;;-5.77;77.44;96623.44;4991015;28;20460;-72
2022/03/01 07:01:09;;;;;;;25.35;8.65;;;;;;;-5.71;76.88;96631.53;4991048;28;20038;-72
2022/03/01 07:03:35;;;;;;;28.02;9.75;;;;;;;-5.77;76.76;96643.94;4975275;28;20058;-73
2022/03/01 07:06:01;;;;;;;33.08;9.93;;;;;;;-5.67;76.28;96640.56;4987722;28;20046;-73
2022/03/01 07:08:26;;;;;;;52.65;8.75;;;;;;;-5.45;74.93;96636.84;4991198;28;20065;-73
2022/03/01 07:10:53;;;;;;;24.35;8.98;;;;;;;-5.43;75.79;96651.16;4989015;28;20776;-72
2022/03/01 07:13:18;;;;;;;25.00;8.68;;;;;;;-5.37;74.54;96639.50;4989046;28;20042;-72
2022/03/01 07:15:44;;;;;;;27.88;9.18;;;;;;;-5.20;74.45;96639.69;4990556;28;20053;-72
2022/03/01 07:18:09;;;;;;;27.73;9.18;;;;;;;-4.99;73.74;96636.91;4986621;28;20622;-72
2022/03/01 07:20:35;;;;;;;33.70;9.50;;;;;;;-4.92;73.37;96635.38;4990286;28;20046;-72
2022/03/01 07:23:02;;;;;;;34.63;8.68;;;;;;;-4.88;73.58;96629.00;4978556;28;20094;-72
2022/03/01 07:25:27;;;;;;;27.63;8.38;;;;;;;-4.74;71.92;96636.22;4975813;28;20100;-72
2022/03/01 07:27:54;;;;;;;24.70;8.10;;;;;;;-4.64;71.17;96640.47;4971026;28;20038;-76
2022/03/01 07:30:24;;;;;;;24.42;9.27;;;;;;;-4.50;70.93;96637.38;4987067;28;20043;-70
2022/03/01 07:32:53;;;;;;;22.40;7.90;;;;;;;-4.32;70.39;96634.81;4983794;28;20046;-70
2022/03/01 07:35:22;;;;;;;32.63;7.72;;;;;;;-4.28;69.64;96640.44;4988896;28;20061;-71
2022/03/01 07:37:48;;;;;;;29.48;9.77;;;;;;;-4.23;69.79;96633.13;4991569;28;20042;-75
2022/03/01 07:40:15;;;;;;;24.27;9.40;;;;;;;-4.10;69.06;96637.88;4988094;28;20488;-74
2022/03/01 07:42:41;;;;;;;30.05;9.80;;;;;;;-3.97;69.00;96637.50;4988060;28;20074;-72
2022/03/01 07:45:08;;;;;;;28.83;10.32;;;;;;;-3.97;69.87;96632.34;4983556;28;20073;-72
2022/03/01 07:47:34;;;;;;;22.25;7.65;;;;;;;-3.86;68.15;96634.69;4989278;28;20162;-72
2022/03/01 07:50:00;;;;;;;27.88;9.05;;;;;;;-3.67;68.17;96633.66;4987012;28;20511;-72
2022/03/01 07:52:25;;;;;;;30.63;8.73;;;;;;;-3.58;68.44;96621.66;4988417;28;20057;-72
2022/03/01 07:54:53;;;;;;;35.33;10.18;;;;;;;-3.44;67.08;96628.78;4987174;28;20042;-72
2022/03/01 07:57:19;;;;;;;20.23;8.05;;;;;;;-3.33;67.31;96620.81;4990883;28;20062;-72
2022/03/01 07:59:45;;;;;;;25.50;8.48;;;;;;;-3.50;67.76;96624.28;4987195;28;20049;-72
2022/03/01 08:02:10;;;;;;;22.80;8.30;;;;;;;-3.27;66.97;96621.16;4977669;28;20109;-74
2022/03/01 08:04:37;;;;;;;19.65;8.35;;;;;;;-3.11;65.99;96623.78;4984631;28;20129;-73
2022/03/01 08:07:03;;;;;;;28.65;9.45;;;;;;;-2.92;65.50;96621.91;4989744;28;20617;-73
2022/03/01 08:09:29;;;;;;;22.45;8.95;;;;;;;-2.93;65.98;96615.16;4989103;28;20093;-72
2022/03/01 08:11:55;;;;;;;20.85;7.90;;;;;;;-2.89;65.58;96616.44;4982266;28;20042;-73
2022/03/01 08:14:20;;;;;;;31.67;9.93;;;;;;;-2.81;65.21;96619.84;4981330;28;20039;-73
2022/03/01 08:16:46;;;;;;;18.40;7.90;;;;;;;-2.68;65.11;96614.25;4989265;28;20389;-72
2022/03/01 08:19:11;;;;;;;32.75;11.70;;;;;;;-2.58;64.79;96608.16;4986899;28;20046;-71
2022/03/01 08:21:37;;;;;;;38.58;10.38;;;;;;;-2.34;63.54;96604.75;4976643;28;20034;-72
2022/03/01 08:24:03;;;;;;;26.17;9.07;;;;;;;-2.24;63.45;96605.44;4978952;28;20043;-72
2022/03/01 08:26:28;;;;;;;24.92;9.05;;;;;;;-2.09;62.65;96608.16;4983445;28;20039;-73
2022/03/01 08:28:54;;;;;;;21.83;8.25;;;;;;;-1.90;61.95;96611.38;4987173;28;20038;-71
2022/03/01 08:31:20;;;;;;;25.55;9.02;;;;;;;-1.75;62.05;96620.06;4984773;28;20046;-71
2022/03/01 08:33:46;;;;;;;24.13;9.90;;;;;;;-1.64;60.83;96611.97;4972023;28;20061;-72
2022/03/01 08:36:13;;;;;;;32.17;10.18;;;;;;;-1.57;60.52;96612.94;4983087;28;20058;-71
2022/03/01 08:38:39;;;;;;;21.33;8.07;;;;;;;-1.50;59.46;96614.84;4990673;28;20416;-73
2022/03/01 08:41:05;;;;;;;29.52;9.93;;;;;;;-1.41;59.30;96616.41;4988097;28;20057;-76
2022/03/01 08:43:31;;;;;;;31.45;10.35;;;;;;;-1.35;59.02;96609.78;4983779;28;20039;-72
2022/03/01 08:45:56;;;;;;;24.58;9.43;;;;;;;-1.38;59.65;96608.31;4986935;28;20057;-74
2022/03/01 08:48:22;;;;;;;23.33;8.75;;;;;;;-1.29;59.95;96615.09;4986251;28;20102;-73
2022/03/01 08:50:47;;;;;;;23.60;9.10;;;;;;;-1.10;59.17;96613.09;4984574;28;20074;-73
2022/03/01 08:53:14;;;;;;;33.22;10.25;;;;;;;-1.11;59.52;96611.47;4982764;28;20053;-73
2022/03/01 08:55:40;;;;;;;24.73;8.93;;;;;;;-1.43;60.69;96613.19;4980660;28;20053;-73
2022/03/01 08:58:06;;;;;;;27.55;9.93;;;;;;;-1.54;61.95;96610.97;4981846;28;20046;-73
2022/03/01 09:00:33;;;;;;;27.92;10.38;;;;;;;-1.61;61.78;96610.81;4989642;28;20427;-73
2022/03/01 09:02:59;;;;;;;25.02;9.55;;;;;;;-1.40;60.94;96612.88;4985005;28;20086;-73
2022/03/01 09:05:25;;;;;;;26.27;9.25;;;;;;;-1.39;60.01;96609.31;4985314;28;20047;-73
2022/03/01 09:07:51;;;;;;;23.92;9.57;;;;;;;-1.42;59.75;96609.66;4989887;28;20038;-73
2022/03/01 09:10:22;;;;;;;24.95;9.23;;;;;;;-1.17;58.02;96601.81;4989201;28;20049;-73
2022/03/01 09:12:52;;;;;;;31.77;9.23;;;;;;;-0.99;58.09;96594.63;4985137;28;20038;-74
2022/03/01 09:15:19;;;;;;;21.20;8.23;;;;;;;-0.96;57.81;96599.44;4989603;28;20118;-73
2022/03/01 09:17:45;;;;;;;23.30;9.00;;;;;;;-0.82;58.95;96599.69;4989113;28;20050;-73
2022/03/01 09:20:11;;;;;;;30.58;9.00;;;;;;;-0.94;56.96;96602.66;4984981;28;20073;-73
2022/03/01 09:22:37;;;;;;;24.13;9.40;;;;;;;-0.88;56.92;96607.16;4986237;28;20491;-73
2022/03/01 09:25:04;;;;;;;24.58;8.57;;;;;;;-0.95;58.08;96601.06;4980472;28;20045;-73
2022/03/01 09:27:31;;;;;;;23.48;8.70;;;;;;;-0.92;58.52;96605.06;4985705;28;20046;-74
2022/03/01 09:29:56;;;;;;;22.20;8.55;;;;;;;-0.97;57.75;96600.41;4988906;28;20503;-74
2022/03/01 09:32:22;;;;;;;26.05;8.75;;;;;;;-0.79;58.37;96599.34;4976899;28;20043;-75
2022/03/01 09:34:48;;;;;;;20.73;8.02;;;;;;;-0.80;57.85;96598.56;4983581;28;20050;-75
2022/03/01 09:37:14;;;;;;;21.05;8.25;;;;;;;-0.42;57.00;96595.22;4989617;28;20110;-75
2022/03/01 09:39:39;;;;;;;21.20;8.80;;;;;;;-0.60;56.46;96591.16;4985046;28;20035;-75
2022/03/01 09:42:08;;;;;;;20.52;7.95;;;;;;;-0.58;56.69;96581.44;4983989;28;20047;-72
2022/03/01 09:44:33;;;;;;;20.05;8.35;;;;;;;-0.16;55.98;96576.75;4986242;28;20114;-75
2022/03/01 09:46:59;;;;;;;24.63;8.60;;;;;;;-0.41;55.93;96574.38;4989294;28;20113;-73
2022/03/01 09:49:24;;;;;;;23.77;7.95;;;;;;;-0.34;55.92;96577.06;4985051;28;20113;-73
2022/03/01 09:51:50;;;;;;;18.85;7.97;;;;;;;-0.19;55.21;96575.34;4983555;28;20047;-74
2022/03/01 09:54:16;;;;;;;21.63;8.27;;;;;;;-0.07;54.85;96572.31;4980108;28;20047;-74
2022/03/01 09:56:43;;;;;;;22.45;8.10;;;;;;;0.22;54.71;96565.59;4992271;28;20121;-74
2022/03/01 09:59:09;;;;;;;22.38;7.85;;;;;;;0.32;53.65;96563.53;4992943;28;20054;-74
2022/03/01 10:01:34;;;;;;;21.25;8.25;;;;;;;0.42;54.01;96550.31;4990788;28;20039;-73
2022/03/01 10:04:10;;;;;;;21.73;9.18;;;;;;;0.54;52.34;96553.25;4991187;28;20050;-73
2022/03/01 10:06:44;;;;;;;21.80;9.27;;;;;;;0.77;51.71;96548.75;4992874;28;20054;-73
2022/03/01 10:09:28;;;;;;;17.20;8.10;;;;;;;1.39;51.33;96541.41;4990019;28;20054;-73
2022/03/01 10:11:53;;;;;;;19.55;8.75;;;;;;;1.45;48.80;96540.69;4991551;28;20042;-74
2022/03/01 10:14:30;;;;;;;20.48;7.80;;;;;;;1.90;49.90;96549.03;4988199;28;20100;-73
2022/03/01 10:16:56;;;;;;;24.77;7.88;;;;;;;2.08;48.30;96547.75;4988026;28;20043;-72
2022/03/01 10:19:22;;;;;;;19.50;7.78;;;;;;;3.84;45.56;96548.94;4991093;28;20050;-72
2022/03/01 10:22:00;;;;;;;16.38;8.02;;;;;;;4.16;43.69;96552.50;4991278;28;20042;-71
2022/03/01 10:24:26;;;;;;;15.65;7.38;;;;;;;4.96;43.88;96540.25;4987846;28;20050;-71
2022/03/01 10:26:56;;;;;;;18.30;7.95;;;;;;;4.28;42.92;96524.03;4987793;28;20046;-72
2022/03/01 10:29:26;;;;;;;17.15;7.97;;;;;;;4.65;41.79;96524.31;4992260;28;20042;-72
2022/03/01 10:31:52;;;;;;;19.83;7.72;;;;;;;6.04;40.21;96523.66;4989837;28;20030;-72
2022/03/01 10:34:18;;;;;;;28.45;8.77;;;;;;;4.98;42.03;96525.97;4977499;28;20459;-73
2022/03/01 10:36:49;;;;;;;21.38;8.15;;;;;;;6.37;39.44;96519.16;4988925;28;20156;-72
2022/03/01 10:39:29;;;;;;;16.45;7.45;;;;;;;5.89;39.82;96523.19;4990124;28;20042;-72
2022/03/01 10:41:54;;;;;;;15.02;7.50;;;;;;;7.56;37.02;96516.00;4982893;28;20038;-72
2022/03/01 10:44:29;;;;;;;19.45;7.93;;;;;;;8.74;35.05;96507.31;4981595;28;20049;-72
2022/03/01 10:46:56;;;;;;;18.60;8.80;;;;;;;9.31;34.00;96508.34;4992481;28;20078;-72
2022/03/01 10:49:27;;;;;;;17.70;8.68;;;;;;;10.23;31.03;96504.53;4990198;28;20041;-72
2022/03/01 10:52:02;;;;;;;21.05;9.05;;;;;;;9.75;30.29;96508.56;4987670;28;20096;-73
2022/03/01 10:54:41;;;;;;;17.88;7.93;;;;;;;9.61;29.88;96496.75;4990585;28;20703;-73
2022/03/01 10:57:11;;;;;;;18.50;8.85;;;;;;;9.15;30.70;96489.72;4991888;28;20053;-73
2022/03/01 10:59:39;;;;;;;18.73;9.32;;;;;;;9.79;29.37;96478.13;4987805;28;20039;-73
2022/03/01 11:02:06;;;;;;;22.00;9.30;;;;;;;9.50;30.39;96475.59;4978133;28;20351;-72
2022/03/01 11:04:33;;;;;;;17.58;8.80;;;;;;;9.87;30.52;96475.09;4979965;28;20042;-72
2022/03/01 11:07:05;;;;;;;18.45;8.80;;;;;;;8.13;30.59;96483.22;4995861;28;20092;-71
2022/03/01 11:09:33;;;;;;;20.33;8.75;;;;;;;9.33;30.59;96464.28;4993957;28;20073;-72
2022/03/01 11:11:59;;;;;;;16.45;8.68;;;;;;;8.68;32.08;96463.66;4986393;28;20114;-71
2022/03/01 11:14:30;;;;;;;16.60;8.05;;;;;;;8.63;29.81;96460.91;4990194;28;20058;-73
2022/03/01 11:17:40;;;;;;;17.33;7.80;;;;;;;8.95;29.89;96463.06;4990812;28;20121;-73
2022/03/01 11:20:12;;;;;;;15.85;8.20;;;;;;;8.75;29.25;96445.94;4981475;28;20132;-77
2022/03/01 11:22:56;;;;;;;18.85;8.27;;;;;;;9.88;28.96;96445.16;4990445;28;20038;-77
2022/03/01 11:25:23;;;;;;;;;;;;;;;11.13;25.35;96445.56;4988111;28;20042;-77